createdAt,value
2017-09-11T00:01:45.342Z,71.73
2017-09-11T00:04:12.734Z,71.81
2017-09-11T00:06:40.118Z,71.69
2017-09-11T00:09:07.511Z,71.79
2017-09-11T00:11:34.899Z,71.84
2017-09-11T00:14:02.282Z,72.19
2017-09-11T00:16:29.690Z,72.14
2017-09-11T00:18:57.079Z,72.10
2017-09-11T00:21:24.474Z,72.01
2017-09-11T00:23:51.870Z,71.81
2017-09-11T00:26:19.258Z,72.32
2017-09-11T00:28:46.642Z,71.80
2017-09-11T00:31:14.042Z,71.60
2017-09-11T00:33:41.422Z,72.27
2017-09-11T00:36:08.818Z,72.29
2017-09-11T00:38:36.203Z,72.14
2017-09-11T00:41:03.590Z,71.49
2017-09-11T00:43:30.996Z,72.11
2017-09-11T00:45:58.374Z,72.06
2017-09-11T00:48:25.756Z,71.55
2017-09-11T00:50:53.143Z,71.57
2017-09-11T00:53:20.528Z,71.79
2017-09-11T00:55:47.918Z,71.75
2017-09-11T00:58:15.302Z,71.17
2017-09-11T01:00:42.683Z,71.88
2017-09-11T01:03:10.069Z,72.66
2017-09-11T01:05:37.442Z,71.49
2017-09-11T01:08:04.831Z,71.26
2017-09-11T01:10:32.249Z,71.44
2017-09-11T01:12:59.675Z,71.37
2017-09-11T01:15:27.168Z,70.89
2017-09-11T01:17:54.554Z,70.45
2017-09-11T01:20:21.942Z,70.60
2017-09-11T01:22:49.331Z,70.42
2017-09-11T01:25:16.790Z,70.24
2017-09-11T01:27:44.179Z,70.52
2017-09-11T01:30:11.566Z,70.73
2017-09-11T01:32:38.969Z,70.54
2017-09-11T01:35:06.415Z,70.39
2017-09-11T01:37:33.798Z,70.26
2017-09-11T01:40:01.215Z,70.14
2017-09-11T01:42:28.599Z,70.22
2017-09-11T01:44:55.982Z,70.16
2017-09-11T01:47:23.486Z,69.81
2017-09-11T01:49:50.875Z,69.83
2017-09-11T01:52:18.250Z,69.50
2017-09-11T01:54:45.651Z,69.82
2017-09-11T01:57:13.031Z,68.84
2017-09-11T01:59:40.506Z,69.52
2017-09-11T02:02:35.570Z,68.59
2017-09-11T02:05:02.957Z,68.94
2017-09-11T02:07:30.327Z,69.28
2017-09-11T02:09:57.718Z,69.35
2017-09-11T02:12:25.106Z,68.98
2017-09-11T02:14:52.491Z,68.98
2017-09-11T02:17:19.883Z,68.92
2017-09-11T02:19:47.274Z,68.75
2017-09-11T02:22:14.655Z,69.08
2017-09-11T02:24:42.048Z,69.10
2017-09-11T02:27:09.522Z,69.02
2017-09-11T02:29:36.984Z,69.46
2017-09-11T02:32:04.375Z,69.18
2017-09-11T02:34:31.769Z,68.63
2017-09-11T02:36:59.156Z,68.48
2017-09-11T02:39:26.538Z,67.89
2017-09-11T02:41:53.921Z,68.08
2017-09-11T02:44:21.311Z,68.04
2017-09-11T02:46:48.690Z,68.49
2017-09-11T02:49:16.122Z,67.89
2017-09-11T02:51:43.518Z,68.62
2017-09-11T02:54:10.886Z,67.57
2017-09-11T02:56:38.386Z,67.57
2017-09-11T02:59:05.771Z,67.50
2017-09-11T03:01:33.162Z,67.33
2017-09-11T03:04:00.553Z,67.75
2017-09-11T03:06:28.018Z,67.70
2017-09-11T03:08:55.470Z,67.27
2017-09-11T03:11:22.927Z,67.00
2017-09-11T03:13:50.306Z,66.89
2017-09-11T03:16:17.694Z,66.50
2017-09-11T03:18:45.074Z,66.70
2017-09-11T03:21:12.554Z,66.69
2017-09-11T03:23:39.930Z,66.76
2017-09-11T03:26:07.319Z,66.86
2017-09-11T03:28:34.730Z,66.64
2017-09-11T03:31:02.115Z,66.57
2017-09-11T03:33:29.498Z,66.18
2017-09-11T03:35:56.981Z,66.67
2017-09-11T03:38:24.363Z,66.82
2017-09-11T03:40:51.751Z,66.46
2017-09-11T03:43:19.154Z,67.42
2017-09-11T03:45:46.539Z,66.75
2017-09-11T03:48:13.930Z,66.25
2017-09-11T03:50:41.314Z,66.12
2017-09-11T03:53:08.711Z,66.42
2017-09-11T03:55:36.091Z,66.34
2017-09-11T03:58:03.482Z,67.59
2017-09-11T04:00:30.866Z,67.28
2017-09-11T04:02:58.254Z,67.15
2017-09-11T04:05:25.633Z,67.00
2017-09-11T04:07:53.015Z,66.95
2017-09-11T04:10:20.389Z,66.62
2017-09-11T04:12:47.774Z,66.84
2017-09-11T04:15:15.150Z,67.25
2017-09-11T04:17:42.547Z,68.07
2017-09-11T04:20:09.925Z,67.61
2017-09-11T04:22:37.316Z,67.23
2017-09-11T04:25:04.746Z,68.62
2017-09-11T04:27:32.276Z,68.47
2017-09-11T04:29:59.624Z,68.91
2017-09-11T04:32:27.011Z,68.33
2017-09-11T04:34:54.424Z,68.18
2017-09-11T04:37:21.822Z,67.76
2017-09-11T04:39:49.206Z,69.17
2017-09-11T04:42:16.592Z,68.99
2017-09-11T04:44:43.983Z,68.67
2017-09-11T04:47:11.354Z,68.14
2017-09-11T04:49:38.750Z,68.62
2017-09-11T04:52:06.135Z,69.52
2017-09-11T04:54:33.539Z,69.40
2017-09-11T04:57:00.917Z,68.77
2017-09-11T04:59:28.306Z,68.89
2017-09-11T05:01:55.746Z,69.60
2017-09-11T05:04:23.129Z,68.72
2017-09-11T05:06:50.507Z,69.08
2017-09-11T05:09:17.898Z,69.06
2017-09-11T05:11:45.339Z,69.27
2017-09-11T05:14:12.727Z,69.38
2017-09-11T05:16:40.111Z,69.10
2017-09-11T05:19:07.491Z,69.00
2017-09-11T05:21:34.876Z,69.27
2017-09-11T05:24:02.317Z,69.86
2017-09-11T05:26:29.702Z,69.49
2017-09-11T05:28:57.096Z,70.47
2017-09-11T05:31:24.486Z,69.70
2017-09-11T05:33:51.866Z,70.61
2017-09-11T05:36:19.258Z,70.35
2017-09-11T05:38:46.643Z,69.83
2017-09-11T05:41:14.038Z,69.76
2017-09-11T05:43:41.423Z,70.39
2017-09-11T05:46:08.806Z,70.38
2017-09-11T05:48:36.191Z,70.83
2017-09-11T05:51:03.631Z,70.35
2017-09-11T05:53:31.015Z,70.79
2017-09-11T05:55:58.406Z,71.31
2017-09-11T05:58:25.783Z,71.23
2017-09-11T06:00:53.171Z,71.12
2017-09-11T06:03:20.547Z,71.79
2017-09-11T06:05:47.936Z,71.28
2017-09-11T06:08:15.914Z,71.52
2017-09-11T06:10:43.350Z,72.02
2017-09-11T06:13:10.719Z,71.11
2017-09-11T06:15:38.208Z,70.95
2017-09-11T06:18:06.076Z,70.19
2017-09-11T06:20:33.438Z,70.14
2017-09-11T06:23:00.826Z,70.98
2017-09-11T06:25:28.210Z,70.86
2017-09-11T06:27:55.617Z,71.44
2017-09-11T06:30:23.024Z,70.87
2017-09-11T06:32:50.418Z,71.31
2017-09-11T06:35:17.811Z,71.84
2017-09-11T06:37:45.198Z,72.00
2017-09-11T06:40:12.578Z,72.30
2017-09-11T06:42:40.020Z,73.18
2017-09-11T06:45:07.398Z,72.43
2017-09-11T06:47:34.826Z,73.23
2017-09-11T06:50:02.206Z,73.70
2017-09-11T06:52:29.596Z,73.56
2017-09-11T06:54:56.970Z,73.42
2017-09-11T06:57:24.394Z,73.91
2017-09-11T06:59:51.786Z,74.51
2017-09-11T07:02:19.311Z,75.10
2017-09-11T07:04:46.698Z,75.81
2017-09-11T07:07:14.170Z,76.05
2017-09-11T07:09:41.547Z,76.36
2017-09-11T07:12:20.878Z,76.65
2017-09-11T07:14:48.335Z,75.68
2017-09-11T07:17:15.695Z,75.95
2017-09-11T07:19:43.074Z,75.78
2017-09-11T07:22:10.450Z,75.88
2017-09-11T07:24:37.858Z,75.66
2017-09-11T07:27:05.247Z,75.03
2017-09-11T07:29:32.669Z,74.84
2017-09-11T07:32:00.097Z,75.50
2017-09-11T07:34:27.562Z,74.54
2017-09-11T07:36:55.014Z,74.94
2017-09-11T07:39:22.402Z,75.48
2017-09-11T07:41:49.827Z,75.33
2017-09-11T07:44:17.221Z,74.80
2017-09-11T07:46:44.614Z,73.90
2017-09-11T07:49:11.998Z,71.23
2017-09-11T07:51:39.382Z,69.52
2017-09-11T07:54:06.778Z,67.33
2017-09-11T07:56:34.432Z,64.61
2017-09-11T07:59:01.815Z,64.56
2017-09-11T08:01:29.204Z,63.57
2017-09-11T08:03:56.939Z,62.74
2017-09-11T08:06:25.371Z,60.32
2017-09-11T08:08:52.759Z,57.72
2017-09-11T08:11:20.233Z,54.67
2017-09-11T08:13:47.607Z,51.85
2017-09-11T08:16:14.999Z,51.26
2017-09-11T08:18:42.378Z,50.58
2017-09-11T08:21:09.926Z,51.54
2017-09-11T08:23:37.303Z,51.04
2017-09-11T08:26:04.691Z,51.07
2017-09-11T08:28:32.098Z,53.05
2017-09-11T08:30:59.486Z,53.51
2017-09-11T08:33:26.871Z,56.30
2017-09-11T08:35:54.258Z,56.37
2017-09-11T08:38:21.694Z,58.36
2017-09-11T08:40:49.119Z,58.16
2017-09-11T08:43:16.575Z,59.79
2017-09-11T08:45:44.031Z,59.56
2017-09-11T08:48:11.414Z,60.83
2017-09-11T08:50:38.806Z,61.57
2017-09-11T08:53:06.169Z,60.68
2017-09-11T08:55:33.663Z,59.99
2017-09-11T08:58:01.038Z,58.12
2017-09-11T09:00:28.438Z,58.40
2017-09-11T09:02:55.806Z,56.94
2017-09-11T09:05:23.197Z,56.94
2017-09-11T09:07:50.578Z,58.31
2017-09-11T09:10:17.971Z,59.57
2017-09-11T09:12:45.352Z,59.31
2017-09-11T09:15:12.802Z,60.58
2017-09-11T09:17:40.191Z,59.11
2017-09-11T09:20:07.580Z,60.18
2017-09-11T09:22:34.968Z,60.78
2017-09-11T09:25:02.347Z,60.55
2017-09-11T09:27:29.750Z,61.41
2017-09-11T09:29:57.118Z,60.75
2017-09-11T09:32:24.509Z,61.84
2017-09-11T09:34:51.900Z,60.30
2017-09-11T09:37:19.296Z,59.70
2017-09-11T09:39:46.682Z,61.11
2017-09-11T09:42:14.066Z,60.91
2017-09-11T09:44:41.466Z,62.35
2017-09-11T09:47:08.858Z,62.13
2017-09-11T09:49:36.247Z,61.03
2017-09-11T09:52:03.631Z,63.57
2017-09-11T09:54:31.090Z,64.08
2017-09-11T09:56:59.093Z,63.18
2017-09-11T09:59:26.474Z,63.41
2017-09-11T10:01:54.208Z,62.53
2017-09-11T10:04:21.578Z,63.04
2017-09-11T10:06:48.960Z,63.40
2017-09-11T10:09:16.342Z,64.03
2017-09-11T10:11:43.723Z,63.35
2017-09-11T10:14:12.143Z,64.25
2017-09-11T10:16:40.166Z,65.03
2017-09-11T10:19:07.550Z,64.17
2017-09-11T10:21:34.946Z,63.57
2017-09-11T10:24:02.422Z,64.29
2017-09-11T10:26:30.441Z,64.69
2017-09-11T10:28:57.815Z,63.10
2017-09-11T10:31:25.195Z,62.94
2017-09-11T10:33:52.591Z,63.38
2017-09-11T10:36:19.980Z,63.35
2017-09-11T10:38:47.355Z,63.29
2017-09-11T10:41:14.822Z,62.80
2017-09-11T10:43:42.207Z,64.22
2017-09-11T10:46:09.597Z,62.93
2017-09-11T10:48:36.978Z,62.86
2017-09-11T10:51:04.365Z,63.49
2017-09-11T10:53:31.743Z,59.88
2017-09-11T10:55:59.157Z,57.86
2017-09-11T10:58:26.534Z,58.15
2017-09-11T11:00:53.944Z,58.30
2017-09-11T11:03:21.326Z,58.01
2017-09-11T11:05:48.791Z,59.61
2017-09-11T11:08:16.227Z,59.13
2017-09-11T11:10:43.612Z,60.65
2017-09-11T11:13:10.995Z,60.63
2017-09-11T11:15:38.386Z,59.81
2017-09-11T11:18:05.758Z,60.40
2017-09-11T11:20:33.147Z,58.79
2017-09-11T11:23:00.523Z,59.39
2017-09-11T11:25:27.924Z,58.94
2017-09-11T11:27:55.299Z,57.15
2017-09-11T11:30:22.678Z,58.35
2017-09-11T11:32:50.063Z,58.12
2017-09-11T11:35:17.442Z,58.27
2017-09-11T11:37:44.826Z,57.79
2017-09-11T11:40:12.206Z,57.21
2017-09-11T11:42:39.635Z,57.64
2017-09-11T11:45:07.070Z,57.52
2017-09-11T11:47:34.458Z,55.59
2017-09-11T11:50:01.838Z,56.39
2017-09-11T11:52:29.542Z,56.44
2017-09-11T11:54:56.922Z,57.02
2017-09-11T11:57:24.407Z,56.28
2017-09-11T11:59:51.782Z,57.81
2017-09-11T12:02:19.171Z,57.85
2017-09-11T12:04:46.554Z,58.16
2017-09-11T12:07:13.963Z,58.99
2017-09-11T12:09:41.382Z,59.29
2017-09-11T12:14:40.359Z,57.76
2017-09-11T12:17:07.746Z,56.04
2017-09-11T12:19:35.127Z,54.05
2017-09-11T12:22:02.502Z,54.03
2017-09-11T12:24:29.886Z,55.44
2017-09-11T12:26:57.270Z,59.66
2017-09-11T12:29:24.662Z,54.93
2017-09-11T12:31:52.055Z,52.04
2017-09-11T12:34:19.443Z,51.44
2017-09-11T12:36:46.826Z,51.26
2017-09-11T12:39:14.359Z,49.82
2017-09-11T12:41:41.739Z,49.10
2017-09-11T12:44:09.784Z,51.70
2017-09-11T12:46:38.950Z,51.18
2017-09-11T12:49:06.677Z,51.23
2017-09-11T12:51:34.231Z,49.83
2017-09-11T12:54:01.627Z,49.13
2017-09-11T12:56:29.002Z,47.68
2017-09-11T12:58:56.390Z,45.89
2017-09-11T13:01:23.771Z,47.39
2017-09-11T13:03:51.155Z,48.23
2017-09-11T13:06:18.978Z,49.95
2017-09-11T13:08:46.371Z,47.79
2017-09-11T13:11:13.752Z,49.10
2017-09-11T13:13:41.137Z,50.10
2017-09-11T13:16:08.523Z,49.26
2017-09-11T13:18:35.921Z,49.74
2017-09-11T13:21:03.311Z,49.38
2017-09-11T13:23:30.698Z,48.05
2017-09-11T13:25:58.202Z,49.82
2017-09-11T13:28:25.591Z,49.09
2017-09-11T13:30:53.218Z,48.35
2017-09-11T13:33:20.590Z,48.32
2017-09-11T13:35:47.984Z,49.41
2017-09-11T13:38:15.364Z,49.77
2017-09-11T13:40:42.754Z,51.80
2017-09-11T13:43:10.135Z,49.24
2017-09-11T13:45:37.545Z,49.59
2017-09-11T13:48:05.574Z,49.77
2017-09-11T13:50:32.966Z,49.33
2017-09-11T13:53:00.347Z,49.42
2017-09-11T13:55:27.742Z,52.02
2017-09-11T13:57:55.134Z,48.56
2017-09-11T14:00:22.531Z,47.68
2017-09-11T14:02:49.902Z,49.54
2017-09-11T14:05:17.281Z,50.64
2017-09-11T14:07:44.666Z,47.89
2017-09-11T14:10:12.051Z,48.37
2017-09-11T14:12:39.494Z,47.54
2017-09-11T14:15:06.862Z,49.09
2017-09-11T14:17:34.258Z,50.17
2017-09-11T14:20:01.642Z,51.97
2017-09-11T14:22:29.041Z,50.47
2017-09-11T14:24:56.426Z,48.40
2017-09-11T14:27:23.911Z,48.23
2017-09-11T14:29:51.290Z,49.17
2017-09-11T14:32:18.683Z,48.66
2017-09-11T14:34:46.062Z,50.56
2017-09-11T14:37:13.471Z,50.40
2017-09-11T14:39:40.858Z,51.08
2017-09-11T14:42:08.250Z,51.65
2017-09-11T14:44:35.626Z,51.92
2017-09-11T14:47:03.062Z,52.68
2017-09-11T14:49:30.438Z,53.79
2017-09-11T14:51:57.822Z,52.49
2017-09-11T14:54:25.230Z,52.13
2017-09-11T14:56:52.618Z,52.53
2017-09-11T14:59:20.009Z,51.34
2017-09-11T15:01:47.387Z,53.37
2017-09-11T15:04:14.790Z,52.46
2017-09-11T15:06:42.186Z,51.96
2017-09-11T15:09:09.566Z,51.75
2017-09-11T15:11:36.959Z,53.02
2017-09-11T15:14:04.350Z,53.72
2017-09-11T15:16:31.734Z,52.18
2017-09-11T15:18:59.127Z,52.98
2017-09-11T15:21:26.502Z,52.74
2017-09-11T15:23:54.002Z,56.29
2017-09-11T15:26:21.379Z,58.76
2017-09-11T15:28:48.807Z,58.29
2017-09-11T15:31:16.187Z,55.70
2017-09-11T15:33:43.569Z,55.90
2017-09-11T15:36:10.956Z,55.10
2017-09-11T15:38:38.350Z,54.02
2017-09-11T15:41:05.730Z,55.26
2017-09-11T15:43:33.114Z,53.96
2017-09-11T15:46:00.599Z,55.19
2017-09-11T15:48:27.999Z,52.68
2017-09-11T15:50:55.383Z,54.01
2017-09-11T15:53:22.763Z,55.74
2017-09-11T15:55:50.147Z,56.43
2017-09-11T15:58:17.542Z,54.48
2017-09-11T16:00:44.930Z,54.78
2017-09-11T16:03:12.314Z,54.51
2017-09-11T16:05:39.715Z,54.15
2017-09-11T16:08:07.212Z,53.71
2017-09-11T16:10:34.594Z,54.53
2017-09-11T16:13:01.988Z,53.03
2017-09-11T16:15:29.378Z,53.12
2017-09-11T16:17:56.758Z,52.39
2017-09-11T16:20:24.153Z,52.49
2017-09-11T16:22:51.530Z,52.64
2017-09-11T16:25:18.919Z,52.76
2017-09-11T16:27:46.298Z,51.78
2017-09-11T16:30:13.690Z,51.63
2017-09-11T16:32:41.071Z,51.87
2017-09-11T16:35:08.515Z,52.10
2017-09-11T16:37:35.899Z,51.07
2017-09-11T16:40:03.282Z,51.40
2017-09-11T16:42:30.671Z,51.55
2017-09-11T16:44:58.067Z,51.03
2017-09-11T16:47:25.464Z,51.02
2017-09-11T16:49:52.845Z,50.27
2017-09-11T16:52:20.231Z,50.73
2017-09-11T16:54:47.615Z,54.84
2017-09-11T16:57:14.998Z,57.17
2017-09-11T16:59:42.387Z,59.84
2017-09-11T17:02:09.781Z,58.35
2017-09-11T17:04:37.159Z,58.50
2017-09-11T17:07:04.555Z,59.42
2017-09-11T17:09:31.939Z,59.96
2017-09-11T17:11:59.334Z,60.23
2017-09-11T17:14:26.714Z,59.86
2017-09-11T17:16:54.168Z,60.55
2017-09-11T17:19:21.542Z,60.28
2017-09-11T17:21:48.926Z,60.47
2017-09-11T17:24:16.315Z,60.16
2017-09-11T17:26:43.720Z,59.76
2017-09-11T17:29:11.143Z,59.74
2017-09-11T17:31:38.594Z,58.89
2017-09-11T17:34:05.994Z,59.81
2017-09-11T17:36:33.383Z,59.65
2017-09-11T17:39:00.762Z,60.11
2017-09-11T17:41:28.155Z,60.03
2017-09-11T17:43:55.574Z,61.20
2017-09-11T17:46:22.966Z,60.75
2017-09-11T17:48:50.349Z,61.46
2017-09-11T17:51:17.743Z,63.33
2017-09-11T17:53:45.131Z,61.61
2017-09-11T17:56:12.510Z,62.82
2017-09-11T17:58:39.893Z,62.51
2017-09-11T18:01:07.337Z,63.04
2017-09-11T18:03:34.719Z,63.72
2017-09-11T18:06:02.096Z,64.11
2017-09-11T18:08:29.486Z,64.29
2017-09-11T18:10:56.869Z,63.87
2017-09-11T18:13:24.270Z,64.20
2017-09-11T18:15:51.646Z,64.74
2017-09-11T18:18:19.042Z,65.37
2017-09-11T18:20:46.428Z,66.01
2017-09-11T18:23:13.815Z,66.20
2017-09-11T18:25:41.194Z,65.91
2017-09-11T18:28:08.574Z,66.16
2017-09-11T18:30:35.967Z,66.61
2017-09-11T18:33:03.346Z,65.97
2017-09-11T18:35:30.734Z,65.52
2017-09-11T18:37:58.110Z,66.29
2017-09-11T18:40:25.520Z,66.13
2017-09-11T18:42:53.010Z,66.60
2017-09-11T18:45:20.468Z,65.50
2017-09-11T18:47:48.795Z,66.60
2017-09-11T18:50:16.191Z,66.34
2017-09-11T18:52:43.574Z,66.18
2017-09-11T18:55:11.026Z,65.71
2017-09-11T18:57:38.411Z,64.90
2017-09-11T19:00:05.806Z,65.59
2017-09-11T19:02:33.196Z,65.17
2017-09-11T19:05:00.586Z,65.72
2017-09-11T19:07:27.991Z,65.37
2017-09-11T19:09:55.378Z,65.38
2017-09-11T19:12:22.763Z,65.68
2017-09-11T19:14:50.168Z,65.78
2017-09-11T19:17:17.548Z,65.25
2017-09-11T19:19:44.938Z,65.29
2017-09-11T19:22:12.326Z,65.65
2017-09-11T19:24:39.729Z,65.85
2017-09-11T19:27:07.104Z,65.64
2017-09-11T19:29:34.482Z,64.50
2017-09-11T19:32:01.875Z,64.57
2017-09-11T19:34:29.259Z,64.66
2017-09-11T19:36:56.638Z,65.07
2017-09-11T19:39:24.024Z,64.25
2017-09-11T19:41:51.463Z,63.18
2017-09-11T19:44:18.843Z,64.07
2017-09-11T19:46:50.954Z,63.60
2017-09-11T19:49:18.330Z,63.23
2017-09-11T19:51:45.714Z,64.19
2017-09-11T19:54:13.102Z,63.27
2017-09-11T19:56:40.502Z,63.65
2017-09-11T19:59:07.963Z,63.74
2017-09-11T20:01:35.370Z,64.19
2017-09-11T20:04:02.755Z,63.95
2017-09-11T20:06:30.149Z,63.75
2017-09-11T20:08:57.535Z,65.42
2017-09-11T20:11:24.918Z,64.93
2017-09-11T20:13:52.307Z,65.49
2017-09-11T20:16:19.686Z,65.34
2017-09-11T20:18:47.074Z,64.75
2017-09-11T20:21:14.559Z,64.79
2017-09-11T20:23:41.966Z,64.75
2017-09-11T20:26:09.346Z,64.40
2017-09-11T20:28:38.624Z,64.12
2017-09-11T20:31:06.043Z,64.59
2017-09-11T20:33:33.422Z,64.76
2017-09-11T20:36:00.822Z,64.16
2017-09-11T20:38:28.212Z,64.20
2017-09-11T20:40:55.596Z,64.02
2017-09-11T20:43:22.982Z,64.24
2017-09-11T20:45:50.362Z,65.07
2017-09-11T20:48:17.751Z,64.61
2017-09-11T20:50:45.151Z,64.72
2017-09-11T20:53:12.530Z,64.53
2017-09-11T20:55:39.906Z,64.60
2017-09-11T20:58:07.291Z,64.81
2017-09-11T21:00:34.675Z,64.25
2017-09-11T21:03:02.070Z,64.04
2017-09-11T21:05:29.448Z,64.50
2017-09-11T21:07:56.846Z,64.64
2017-09-11T21:10:24.235Z,64.52
2017-09-11T21:12:51.615Z,64.26
2017-09-11T21:15:19.002Z,63.96
2017-09-11T21:17:46.391Z,64.00
2017-09-11T21:20:13.770Z,64.45
2017-09-11T21:22:41.154Z,64.73
2017-09-11T21:25:08.551Z,64.81
2017-09-11T21:27:35.938Z,65.76
2017-09-11T21:30:03.794Z,65.62
2017-09-11T21:32:31.175Z,64.68
2017-09-11T21:34:58.562Z,64.83
2017-09-11T21:37:25.938Z,65.47
2017-09-11T21:39:53.323Z,65.75
2017-09-11T21:42:20.706Z,65.41
2017-09-11T21:44:48.104Z,65.40
2017-09-11T21:47:16.418Z,65.79
2017-09-11T21:49:43.807Z,66.10
2017-09-11T21:52:11.286Z,65.91
2017-09-11T21:54:38.679Z,66.31
2017-09-11T21:57:06.099Z,65.60
2017-09-11T21:59:33.482Z,66.16
2017-09-11T22:02:00.875Z,65.91
2017-09-11T22:04:28.254Z,64.89
2017-09-11T22:06:55.645Z,64.58
2017-09-11T22:09:23.019Z,64.77
2017-09-11T22:11:50.422Z,64.69
2017-09-11T22:14:17.886Z,64.44
2017-09-11T22:16:45.274Z,64.28
2017-09-11T22:19:12.658Z,63.91
2017-09-11T22:21:40.046Z,65.04
2017-09-11T22:24:07.431Z,65.32
2017-09-11T22:26:34.822Z,65.68
2017-09-11T22:29:02.203Z,65.60
2017-09-11T22:31:29.598Z,65.99
2017-09-11T22:33:56.975Z,66.77
2017-09-11T22:36:24.367Z,66.46
2017-09-11T22:38:51.766Z,67.82
2017-09-11T22:41:19.157Z,67.72
2017-09-11T22:43:46.650Z,68.67
2017-09-11T22:46:14.103Z,69.71
2017-09-11T22:48:41.566Z,69.51
2017-09-11T22:51:08.956Z,69.62
2017-09-11T22:53:36.342Z,69.84
2017-09-11T22:56:03.727Z,69.79
2017-09-11T22:58:31.187Z,69.39
2017-09-11T23:00:58.644Z,69.80
2017-09-11T23:03:26.099Z,70.34
2017-09-11T23:05:53.484Z,70.51
2017-09-11T23:08:20.876Z,70.62
2017-09-11T23:10:48.254Z,70.87
2017-09-11T23:13:15.648Z,70.98
2017-09-11T23:15:43.040Z,70.37
2017-09-11T23:18:13.826Z,70.55
2017-09-11T23:20:41.194Z,70.50
2017-09-11T23:23:08.584Z,70.72
2017-09-11T23:25:36.079Z,71.19
2017-09-11T23:28:03.470Z,72.25
2017-09-11T23:30:30.855Z,71.71
2017-09-11T23:32:58.338Z,71.92
2017-09-11T23:35:25.745Z,71.10
2017-09-11T23:37:53.105Z,70.53
2017-09-11T23:40:20.491Z,71.09
2017-09-11T23:42:47.883Z,71.41
2017-09-11T23:45:15.270Z,71.64
2017-09-11T23:47:42.658Z,71.71
2017-09-11T23:50:10.051Z,71.82
2017-09-11T23:52:37.430Z,71.07
2017-09-11T23:55:04.822Z,71.17
2017-09-11T23:57:32.303Z,70.46
2017-09-11T23:59:59.758Z,70.51
